Time;durP1;ratioP1;P1;durP2;ratioP2;P2;SDS_P1;SDS_P2;PMS_P1;PMS_P2;Temp;Humidity;BMP_temperature;BMP_pressure;BME280_temperature;BME280_humidity;BME280_pressure;Samples;Min_cycle;Max_cycle;Signal;HPM_P1;HPM_P2
2023/12/02 00:01:41;;;;;;;148.82;80.20;;;;;;;;;;5095706;28;20059;-72
2023/12/02 00:04:26;;;;;;;146.57;77.10;;;;;;;;;;5096055;28;20024;-72
2023/12/02 00:07:12;;;;;;;156.05;81.32;;;;;;;;;;5080112;28;20016;-73
2023/12/02 00:09:58;;;;;;;164.10;84.97;;;;;;;;;;5096120;28;20051;-72
2023/12/02 00:12:43;;;;;;;157.85;79.60;;;;;;;;;;5095563;28;20020;-71
2023/12/02 00:15:29;;;;;;;162.85;79.97;;;;;;;;;;5081224;28;20031;-74
2023/12/02 00:18:14;;;;;;;157.30;81.13;;;;;;;;;;5079833;28;20027;-73
2023/12/02 00:21:00;;;;;;;149.45;77.72;;;;;;;;;;5094357;28;20032;-74
2023/12/02 00:23:46;;;;;;;156.25;81.15;;;;;;;;;;5095659;28;20084;-72
2023/12/02 00:26:31;;;;;;;157.98;79.68;;;;;;;;;;5095701;28;20035;-74
2023/12/02 00:29:17;;;;;;;139.10;75.72;;;;;;;;;;5096013;28;20027;-73
2023/12/02 00:32:02;;;;;;;145.50;79.32;;;;;;;;;;5096080;28;20012;-72
2023/12/02 00:34:48;;;;;;;137.30;73.15;;;;;;;;;;5095524;28;20093;-73
2023/12/02 00:37:34;;;;;;;130.30;73.35;;;;;;;;;;5095429;28;20035;-73
2023/12/02 00:40:19;;;;;;;134.00;73.35;;;;;;;;;;5095549;28;20511;-73
2023/12/02 00:43:05;;;;;;;144.60;78.28;;;;;;;;;;5095248;28;20043;-72
2023/12/02 00:45:51;;;;;;;172.73;81.22;;;;;;;;;;5095827;28;20024;-73
2023/12/02 00:48:36;;;;;;;152.30;82.82;;;;;;;;;;5095664;28;20436;-71
2023/12/02 00:51:22;;;;;;;141.00;77.45;;;;;;;;;;5094611;28;20040;-74
2023/12/02 00:54:08;;;;;;;146.82;78.57;;;;;;;;;;5094292;28;20024;-73
2023/12/02 00:56:54;;;;;;;138.40;73.18;;;;;;;;;;5080333;28;20024;-72
2023/12/02 00:59:39;;;;;;;136.10;67.72;;;;;;;;;;5095240;28;20386;-74
2023/12/02 01:02:25;;;;;;;155.50;71.55;;;;;;;;;;5095557;28;20441;-74
2023/12/02 01:05:10;;;;;;;156.60;70.85;;;;;;;;;;5095185;28;20028;-72
2023/12/02 01:07:56;;;;;;;143.45;69.00;;;;;;;;;;5094422;28;20032;-73
2023/12/02 01:10:42;;;;;;;132.65;63.92;;;;;;;;;;5095245;28;20089;-73
2023/12/02 01:13:27;;;;;;;128.20;66.10;;;;;;;;;;5095250;28;20044;-72
2023/12/02 01:16:13;;;;;;;129.40;63.28;;;;;;;;;;5094642;28;20390;-73
2023/12/02 01:18:58;;;;;;;119.82;61.67;;;;;;;;;;5095253;28;20050;-73
2023/12/02 01:21:44;;;;;;;122.88;62.00;;;;;;;;;;5080836;28;20024;-75
2023/12/02 01:24:30;;;;;;;120.03;62.75;;;;;;;;;;5095968;28;20330;-73
2023/12/02 01:27:17;;;;;;;122.13;62.40;;;;;;;;;;5094822;28;20035;-73
2023/12/02 01:30:03;;;;;;;115.97;61.90;;;;;;;;;;5080102;28;20039;-73
2023/12/02 01:32:49;;;;;;;123.15;64.53;;;;;;;;;;5093100;28;20360;-73
2023/12/02 01:35:34;;;;;;;117.28;62.95;;;;;;;;;;5080191;28;20016;-74
2023/12/02 01:38:20;;;;;;;115.03;61.90;;;;;;;;;;5095115;28;20028;-73
2023/12/02 01:41:06;;;;;;;120.88;61.75;;;;;;;;;;5094407;28;20073;-72
2023/12/02 01:43:52;;;;;;;116.05;60.47;;;;;;;;;;5094185;28;20024;-71
2023/12/02 01:46:38;;;;;;;112.72;58.38;;;;;;;;;;5094096;28;20039;-73
2023/12/02 01:49:24;;;;;;;115.38;60.83;;;;;;;;;;5094958;28;20069;-73
2023/12/02 01:52:10;;;;;;;103.93;56.00;;;;;;;;;;5094035;28;20040;-74
2023/12/02 01:54:55;;;;;;;107.70;52.35;;;;;;;;;;5080559;28;20020;-74
2023/12/02 01:57:42;;;;;;;89.88;47.80;;;;;;;;;;5094007;28;20048;-74
2023/12/02 02:00:27;;;;;;;94.88;48.35;;;;;;;;;;5094220;28;20051;-73
2023/12/02 02:03:13;;;;;;;108.13;51.13;;;;;;;;;;5094494;28;20052;-73
2023/12/02 02:05:59;;;;;;;90.05;49.25;;;;;;;;;;5094322;28;20028;-73
2023/12/02 02:08:44;;;;;;;79.40;45.00;;;;;;;;;;5095969;28;20084;-74
2023/12/02 02:11:30;;;;;;;82.88;45.40;;;;;;;;;;5083457;28;20016;-73
2023/12/02 02:14:16;;;;;;;85.47;45.60;;;;;;;;;;5084311;28;20070;-73
2023/12/02 02:17:02;;;;;;;93.63;47.17;;;;;;;;;;5098823;28;20459;-74
2023/12/02 02:19:47;;;;;;;80.07;44.97;;;;;;;;;;5097443;28;20020;-72
2023/12/02 02:22:33;;;;;;;83.97;45.60;;;;;;;;;;5097419;28;20058;-73
2023/12/02 02:25:18;;;;;;;82.78;47.20;;;;;;;;;;5083707;28;20437;-72
2023/12/02 02:28:04;;;;;;;92.47;46.65;;;;;;;;;;5083626;28;20115;-71
2023/12/02 02:30:50;;;;;;;91.00;46.55;;;;;;;;;;5097479;28;20020;-73
2023/12/02 02:33:35;;;;;;;83.97;47.10;;;;;;;;;;5092494;28;20030;-72
2023/12/02 02:36:21;;;;;;;86.90;47.13;;;;;;;;;;5108452;28;20016;-74
2023/12/02 02:39:07;;;;;;;83.43;45.83;;;;;;;;;;5110984;28;20080;-74
2023/12/02 02:41:54;;;;;;;96.35;45.83;;;;;;;;;;5112336;28;20039;-73
2023/12/02 02:44:40;;;;;;;88.95;44.75;;;;;;;;;;5101075;28;20032;-72
2023/12/02 02:47:25;;;;;;;81.40;43.97;;;;;;;;;;5113346;28;20020;-72
2023/12/02 02:50:11;;;;;;;78.22;43.58;;;;;;;;;;5111194;28;20024;-71
2023/12/02 02:52:56;;;;;;;85.97;46.22;;;;;;;;;;5112085;28;20016;-73
2023/12/02 02:55:42;;;;;;;78.03;43.38;;;;;;;;;;5113169;28;20170;-71
2023/12/02 02:58:28;;;;;;;77.65;43.28;;;;;;;;;;5112139;28;20016;-71
2023/12/02 03:01:14;;;;;;;77.78;42.90;;;;;;;;;;5096608;28;20084;-73
2023/12/02 03:04:00;;;;;;;78.22;42.75;;;;;;;;;;5111805;28;20031;-72
2023/12/02 03:06:45;;;;;;;80.82;42.83;;;;;;;;;;5097542;28;20035;-73
2023/12/02 03:09:31;;;;;;;79.75;42.92;;;;;;;;;;5112206;28;20129;-72
2023/12/02 03:12:16;;;;;;;78.57;43.20;;;;;;;;;;5097454;28;20049;-73
2023/12/02 03:15:03;;;;;;;76.32;42.47;;;;;;;;;;5111156;28;20020;-73
2023/12/02 03:17:49;;;;;;;79.15;41.85;;;;;;;;;;5097556;28;20087;-72
2023/12/02 03:20:35;;;;;;;83.50;43.33;;;;;;;;;;5104787;28;20016;-72
2023/12/02 03:23:20;;;;;;;85.10;44.60;;;;;;;;;;5099120;28;20023;-72
2023/12/02 03:26:06;;;;;;;85.50;45.05;;;;;;;;;;5097447;28;20020;-73
2023/12/02 03:28:52;;;;;;;85.60;46.08;;;;;;;;;;5097058;28;20024;-74
2023/12/02 03:31:38;;;;;;;82.72;43.72;;;;;;;;;;5089707;28;20020;-74
2023/12/02 03:34:24;;;;;;;84.00;43.33;;;;;;;;;;5107248;28;20024;-73
2023/12/02 03:37:10;;;;;;;80.40;43.50;;;;;;;;;;5104914;28;20020;-73
2023/12/02 03:39:55;;;;;;;81.93;43.65;;;;;;;;;;5096668;28;20016;-73
2023/12/02 03:42:41;;;;;;;83.00;45.42;;;;;;;;;;5098052;28;20020;-73
2023/12/02 03:45:27;;;;;;;91.28;46.05;;;;;;;;;;5097379;28;20081;-73
2023/12/02 03:48:12;;;;;;;88.55;45.10;;;;;;;;;;5096973;28;20016;-74
2023/12/02 03:50:58;;;;;;;87.38;46.08;;;;;;;;;;5100546;28;20058;-74
2023/12/02 03:53:45;;;;;;;92.68;48.50;;;;;;;;;;5089895;28;20031;-75
2023/12/02 03:56:31;;;;;;;100.60;51.25;;;;;;;;;;5109826;28;20024;-75
2023/12/02 03:59:16;;;;;;;104.28;54.13;;;;;;;;;;5111784;28;20092;-74
2023/12/02 04:02:02;;;;;;;110.00;55.45;;;;;;;;;;5111593;28;20035;-73
2023/12/02 04:04:48;;;;;;;109.35;55.30;;;;;;;;;;5111016;28;20024;-72
2023/12/02 04:07:33;;;;;;;103.63;56.72;;;;;;;;;;5095413;28;20087;-72
2023/12/02 04:10:19;;;;;;;122.05;59.70;;;;;;;;;;5095194;28;20444;-74
2023/12/02 04:13:08;;;;;;;114.88;59.53;;;;;;;;;;5109690;28;20039;-74
2023/12/02 04:15:54;;;;;;;105.88;56.90;;;;;;;;;;5093914;28;20020;-73
2023/12/02 04:18:39;;;;;;;105.53;54.70;;;;;;;;;;5110612;28;20020;-72
2023/12/02 04:21:26;;;;;;;97.15;53.13;;;;;;;;;;5090906;28;20016;-74
2023/12/02 04:24:12;;;;;;;99.72;53.17;;;;;;;;;;5097296;28;20027;-73
2023/12/02 04:26:57;;;;;;;97.53;49.85;;;;;;;;;;5097024;28;20012;-74
2023/12/02 04:29:43;;;;;;;92.28;49.20;;;;;;;;;;5097077;28;20444;-74
2023/12/02 04:32:29;;;;;;;95.45;50.38;;;;;;;;;;5097586;28;20020;-74
2023/12/02 04:35:14;;;;;;;96.32;51.72;;;;;;;;;;5100417;28;20089;-74
2023/12/02 04:38:00;;;;;;;105.95;53.35;;;;;;;;;;5097485;28;20399;-74
2023/12/02 04:40:45;;;;;;;111.18;51.05;;;;;;;;;;5095909;28;20035;-74
2023/12/02 04:43:31;;;;;;;101.07;53.22;;;;;;;;;;5082424;28;20031;-73
2023/12/02 04:46:17;;;;;;;104.55;48.72;;;;;;;;;;5096315;28;20035;-73
2023/12/02 04:49:03;;;;;;;93.50;49.85;;;;;;;;;;5096577;28;20035;-74
2023/12/02 04:51:48;;;;;;;99.35;51.15;;;;;;;;;;5094612;28;20075;-73
2023/12/02 04:54:34;;;;;;;102.97;50.15;;;;;;;;;;5096951;28;20020;-73
2023/12/02 04:57:20;;;;;;;99.00;51.15;;;;;;;;;;5096274;28;20023;-73
2023/12/02 05:00:13;;;;;;;107.45;51.85;;;;;;;;;;5095866;28;20165;-74
2023/12/02 05:03:00;;;;;;;88.60;49.50;;;;;;;;;;5095697;28;20027;-73
2023/12/02 05:05:46;;;;;;;84.68;46.60;;;;;;;;;;5095864;28;20028;-73
2023/12/02 05:08:32;;;;;;;85.78;46.22;;;;;;;;;;5080964;28;20016;-73
2023/12/02 05:11:19;;;;;;;100.63;47.67;;;;;;;;;;5095803;28;20043;-73
2023/12/02 05:14:04;;;;;;;96.10;48.97;;;;;;;;;;5094839;28;20020;-74
2023/12/02 05:16:50;;;;;;;89.18;48.15;;;;;;;;;;5081361;28;20336;-75
2023/12/02 05:19:36;;;;;;;87.15;48.33;;;;;;;;;;5080455;28;20467;-73
2023/12/02 05:22:21;;;;;;;86.50;48.83;;;;;;;;;;5094716;28;20028;-75
2023/12/02 05:25:07;;;;;;;86.53;48.75;;;;;;;;;;5095002;28;20028;-74
2023/12/02 05:27:53;;;;;;;85.22;46.92;;;;;;;;;;5095145;28;20016;-74
2023/12/02 05:30:38;;;;;;;89.15;45.63;;;;;;;;;;5095132;28;20040;-74
2023/12/02 05:33:24;;;;;;;92.95;46.47;;;;;;;;;;5080807;28;20024;-73
2023/12/02 05:36:10;;;;;;;91.10;46.33;;;;;;;;;;5094181;28;20012;-74
2023/12/02 05:38:56;;;;;;;108.20;48.00;;;;;;;;;;5079317;28;20025;-74
2023/12/02 05:41:42;;;;;;;92.85;46.75;;;;;;;;;;5093717;28;20027;-73
2023/12/02 05:44:28;;;;;;;93.68;45.70;;;;;;;;;;5098677;28;20092;-73
2023/12/02 05:47:13;;;;;;;99.25;47.53;;;;;;;;;;5099890;28;20089;-73
2023/12/02 05:49:59;;;;;;;88.40;44.75;;;;;;;;;;5083712;28;20085;-72
2023/12/02 05:52:45;;;;;;;97.90;44.63;;;;;;;;;;5100067;28;20044;-74
2023/12/02 05:55:33;;;;;;;86.45;45.60;;;;;;;;;;5098693;28;20078;-73
2023/12/02 05:58:19;;;;;;;87.93;46.15;;;;;;;;;;5098376;28;20505;-73
2023/12/02 06:01:04;;;;;;;97.85;43.00;;;;;;;;;;5097778;28;20020;-75
2023/12/02 06:03:50;;;;;;;92.53;46.42;;;;;;;;;;5098569;28;20394;-73
2023/12/02 06:06:36;;;;;;;88.47;45.25;;;;;;;;;;5097396;28;20035;-73
2023/12/02 06:09:21;;;;;;;82.93;45.53;;;;;;;;;;5082767;28;20106;-73
2023/12/02 06:12:07;;;;;;;76.43;41.58;;;;;;;;;;5083068;28;20077;-73
2023/12/02 06:14:53;;;;;;;72.20;38.25;;;;;;;;;;5082722;28;20091;-76
2023/12/02 06:17:39;;;;;;;87.70;42.22;;;;;;;;;;5083534;28;20462;-73
2023/12/02 06:20:24;;;;;;;81.43;41.20;;;;;;;;;;5098643;28;20028;-73
2023/12/02 06:23:10;;;;;;;77.80;40.78;;;;;;;;;;5098034;28;20356;-74
2023/12/02 06:25:55;;;;;;;70.18;37.75;;;;;;;;;;5096941;28;20024;-74
2023/12/02 06:28:41;;;;;;;73.20;37.17;;;;;;;;;;5097905;28;20039;-73
2023/12/02 06:31:27;;;;;;;61.05;33.95;;;;;;;;;;5097912;28;20039;-73
2023/12/02 06:34:12;;;;;;;61.95;32.45;;;;;;;;;;5097260;28;20112;-72
2023/12/02 06:36:58;;;;;;;67.63;34.22;;;;;;;;;;5096180;28;20433;-72
2023/12/02 06:39:44;;;;;;;58.40;33.20;;;;;;;;;;5096785;28;20035;-72
2023/12/02 06:42:29;;;;;;;58.88;32.00;;;;;;;;;;5097720;28;20168;-74
2023/12/02 06:45:15;;;;;;;57.00;31.48;;;;;;;;;;5097942;28;20024;-72
2023/12/02 06:48:01;;;;;;;71.18;32.13;;;;;;;;;;5097290;28;20089;-73
2023/12/02 06:50:46;;;;;;;54.50;29.77;;;;;;;;;;5096489;28;20052;-72
2023/12/02 06:53:32;;;;;;;51.40;28.48;;;;;;;;;;5097393;28;20020;-72
2023/12/02 06:56:19;;;;;;;56.22;29.83;;;;;;;;;;5096958;28;20026;-73
2023/12/02 06:59:04;;;;;;;54.00;29.13;;;;;;;;;;5097614;28;20016;-72
2023/12/02 07:01:50;;;;;;;49.53;26.85;;;;;;;;;;5097419;28;20326;-73
2023/12/02 07:04:35;;;;;;;51.97;27.90;;;;;;;;;;5095687;28;20321;-72
2023/12/02 07:07:21;;;;;;;45.45;25.52;;;;;;;;;;5095680;28;20116;-73
2023/12/02 07:10:07;;;;;;;49.13;28.17;;;;;;;;;;5096235;28;20426;-73
2023/12/02 07:12:53;;;;;;;58.15;31.55;;;;;;;;;;5082384;28;20016;-74
2023/12/02 07:15:38;;;;;;;62.17;32.70;;;;;;;;;;5069113;28;20027;-74
2023/12/02 07:18:24;;;;;;;81.70;31.38;;;;;;;;;;5095800;28;20020;-74
2023/12/02 07:21:09;;;;;;;63.97;29.77;;;;;;;;;;5096312;28;20039;-75
2023/12/02 07:23:55;;;;;;;74.40;29.30;;;;;;;;;;5096127;28;20020;-76
2023/12/02 07:26:41;;;;;;;64.72;28.58;;;;;;;;;;5095988;28;20041;-73
2023/12/02 07:29:26;;;;;;;57.90;28.98;;;;;;;;;;5096053;28;20020;-74
2023/12/02 07:32:12;;;;;;;57.90;31.15;;;;;;;;;;5096396;28;20026;-72
2023/12/02 07:34:57;;;;;;;53.75;28.50;;;;;;;;;;5095057;28;20024;-73
2023/12/02 07:37:47;;;;;;;43.22;24.63;;;;;;;;;;5097057;28;20043;-73
2023/12/02 07:40:32;;;;;;;44.05;24.88;;;;;;;;;;5096118;28;20448;-74
2023/12/02 07:43:21;;;;;;;45.38;25.08;;;;;;;;;;5082904;28;20038;-74
2023/12/02 07:46:07;;;;;;;72.93;25.58;;;;;;;;;;5096680;28;20035;-73
2023/12/02 07:48:52;;;;;;;60.65;25.05;;;;;;;;;;5097014;28;20024;-72
2023/12/02 07:51:38;;;;;;;83.00;25.70;;;;;;;;;;5095761;28;20059;-72
2023/12/02 07:54:24;;;;;;;44.80;23.48;;;;;;;;;;5096680;28;20028;-75
2023/12/02 07:57:09;;;;;;;40.53;23.20;;;;;;;;;;5081372;28;20020;-72
2023/12/02 07:59:55;;;;;;;41.47;23.33;;;;;;;;;;5095023;28;20068;-71
2023/12/02 08:02:41;;;;;;;38.42;23.77;;;;;;;;;;5096247;28;20035;-72
2023/12/02 08:05:29;;;;;;;44.47;27.77;;;;;;;;;;5095454;28;20109;-72
2023/12/02 08:08:14;;;;;;;52.05;29.48;;;;;;;;;;5095269;28;20024;-71
2023/12/02 08:11:00;;;;;;;51.58;30.65;;;;;;;;;;5095532;28;20020;-72
2023/12/02 08:13:45;;;;;;;53.80;30.13;;;;;;;;;;5095686;28;20074;-71
2023/12/02 08:16:31;;;;;;;42.55;24.95;;;;;;;;;;5094873;28;20467;-70
2023/12/02 08:19:17;;;;;;;39.10;25.25;;;;;;;;;;5095588;28;20119;-71
2023/12/02 08:22:02;;;;;;;38.20;23.17;;;;;;;;;;5094657;28;20023;-70
2023/12/02 08:24:51;;;;;;;42.63;26.33;;;;;;;;;;5095598;28;20023;-71
2023/12/02 08:27:37;;;;;;;40.88;24.55;;;;;;;;;;5095328;28;20028;-71
2023/12/02 08:30:23;;;;;;;75.72;25.05;;;;;;;;;;5095345;28;20055;-70
2023/12/02 08:33:08;;;;;;;79.25;25.35;;;;;;;;;;5095935;28;20026;-71
2023/12/02 08:35:54;;;;;;;69.70;23.27;;;;;;;;;;5081138;28;20015;-70
2023/12/02 08:38:40;;;;;;;55.63;24.42;;;;;;;;;;5095611;28;20020;-71
2023/12/02 08:41:25;;;;;;;57.42;25.90;;;;;;;;;;5095755;28;20036;-72
2023/12/02 08:44:12;;;;;;;55.15;25.70;;;;;;;;;;5095365;28;20106;-72
2023/12/02 08:47:00;;;;;;;47.25;24.23;;;;;;;;;;5095631;28;20455;-71
2023/12/02 08:49:46;;;;;;;47.20;25.55;;;;;;;;;;5079940;28;20035;-72
2023/12/02 08:52:32;;;;;;;47.83;25.10;;;;;;;;;;5074371;28;20346;-70
2023/12/02 08:55:18;;;;;;;44.60;25.25;;;;;;;;;;5074667;28;20134;-71
2023/12/02 08:58:04;;;;;;;48.25;25.50;;;;;;;;;;5074583;28;20017;-72
2023/12/02 09:00:49;;;;;;;44.63;25.75;;;;;;;;;;5074417;28;20029;-70
2023/12/02 09:03:35;;;;;;;57.95;26.50;;;;;;;;;;5075306;28;20115;-71
2023/12/02 09:06:21;;;;;;;67.93;28.30;;;;;;;;;;5074068;28;20024;-71
2023/12/02 09:09:07;;;;;;;75.72;27.27;;;;;;;;;;5074147;28;20016;-71
2023/12/02 09:11:53;;;;;;;52.58;27.30;;;;;;;;;;5075651;28;20025;-71
2023/12/02 09:14:38;;;;;;;69.68;27.35;;;;;;;;;;5074559;28;20036;-71
2023/12/02 09:17:40;;;;;;;53.80;25.88;;;;;;;;;;5074830;28;20017;-71
2023/12/02 09:20:35;;;;;;;47.80;26.80;;;;;;;;;;5078943;28;20023;-71
2023/12/02 09:23:23;;;;;;;56.47;24.95;;;;;;;;;;5079105;28;20348;-70
2023/12/02 09:26:27;;;;;;;51.55;24.27;;;;;;;;;;5078984;28;20020;-71
2023/12/02 09:29:14;;;;;;;45.22;24.55;;;;;;;;;;5078212;28;20314;-71
2023/12/02 09:32:07;;;;;;;43.65;25.95;;;;;;;;;;5078398;28;20024;-71
2023/12/02 09:34:56;;;;;;;45.50;27.02;;;;;;;;;;5078100;28;20488;-71
2023/12/02 09:37:51;;;;;;;48.38;30.70;;;;;;;;;;5078679;28;20445;-71
2023/12/02 09:40:43;;;;;;;51.95;30.42;;;;;;;;;;5078554;28;20043;-72
2023/12/02 09:43:41;;;;;;;57.13;32.78;;;;;;;;;;5077795;28;20027;-71
2023/12/02 09:46:36;;;;;;;52.83;33.00;;;;;;;;;;5078086;28;20028;-71
2023/12/02 09:49:21;;;;;;;55.78;34.88;;;;;;;;;;5076994;28;20100;-72
2023/12/02 09:52:36;;;;;;;55.30;34.03;;;;;;;;;;5095171;28;20055;-71
2023/12/02 09:55:22;;;;;;;54.80;32.58;;;;;;;;;;5089847;28;20039;-71
2023/12/02 09:58:23;;;;;;;48.45;30.88;;;;;;;;;;5097837;28;20020;-71
2023/12/02 10:01:11;;;;;;;73.68;35.20;;;;;;;;;;5098111;28;20028;-71
2023/12/02 10:04:15;;;;;;;61.50;33.20;;;;;;;;;;5096990;28;20107;-71
2023/12/02 10:07:03;;;;;;;52.67;31.67;;;;;;;;;;5096772;28;20020;-71
2023/12/02 10:10:03;;;;;;;56.33;35.03;;;;;;;;;;5097568;28;20077;-71
2023/12/02 10:13:04;;;;;;;59.08;34.53;;;;;;;;;;5097097;28;20137;-70
2023/12/02 10:15:54;;;;;;;56.80;36.50;;;;;;;;;;5097257;28;20016;-71
2023/12/02 10:18:46;;;;;;;57.35;36.88;;;;;;;;;;5082080;28;20399;-70
2023/12/02 10:21:34;;;;;;;60.13;38.33;;;;;;;;;;5081981;28;20085;-70
2023/12/02 10:24:26;;;;;;;59.30;37.50;;;;;;;;;;5097306;28;20028;-70
2023/12/02 10:27:14;;;;;;;61.92;36.75;;;;;;;;;;5083249;28;20055;-70
2023/12/02 10:30:15;;;;;;;61.03;36.20;;;;;;;;;;5096583;28;20035;-70
2023/12/02 10:33:08;;;;;;;65.63;37.63;;;;;;;;;;5081553;28;20012;-70
2023/12/02 10:36:02;;;;;;;74.03;43.42;;;;;;;;;;5083286;28;20452;-71
2023/12/02 10:39:05;;;;;;;64.63;39.35;;;;;;;;;;5076399;28;20019;-70
2023/12/02 10:41:52;;;;;;;64.13;37.38;;;;;;;;;;5076990;28;20091;-71
2023/12/02 10:44:38;;;;;;;69.57;36.47;;;;;;;;;;5089606;28;20024;-70
2023/12/02 10:47:24;;;;;;;57.70;35.05;;;;;;;;;;5096468;28;20038;-71
2023/12/02 10:50:13;;;;;;;58.97;36.28;;;;;;;;;;5094297;28;20048;-71
2023/12/02 10:52:58;;;;;;;59.13;36.03;;;;;;;;;;5048647;28;20026;-70
2023/12/02 10:55:47;;;;;;;54.55;33.67;;;;;;;;;;5062214;28;20016;-70
2023/12/02 10:58:33;;;;;;;64.10;36.63;;;;;;;;;;5062644;28;20024;-71
2023/12/02 11:01:30;;;;;;;76.70;38.58;;;;;;;;;;5077560;28;20024;-71
2023/12/02 11:04:28;;;;;;;90.95;39.75;;;;;;;;;;5062665;28;20089;-70
2023/12/02 11:07:15;;;;;;;77.50;42.45;;;;;;;;;;5076239;28;20027;-71
2023/12/02 11:10:05;;;;;;;97.70;43.33;;;;;;;;;;5076283;28;20025;-70
2023/12/02 11:12:51;;;;;;;93.97;43.78;;;;;;;;;;5076549;28;20021;-71
2023/12/02 11:15:43;;;;;;;83.95;41.08;;;;;;;;;;5076907;28;20544;-71
2023/12/02 11:18:37;;;;;;;81.53;38.97;;;;;;;;;;5076816;28;20419;-71
2023/12/02 11:21:43;;;;;;;68.68;40.38;;;;;;;;;;5076001;28;20033;-71
2023/12/02 11:24:31;;;;;;;85.78;43.80;;;;;;;;;;5048405;28;20445;-70
2023/12/02 11:27:26;;;;;;;80.72;46.38;;;;;;;;;;5076616;28;20024;-71
2023/12/02 11:30:15;;;;;;;76.47;43.50;;;;;;;;;;5076563;28;20032;-72
2023/12/02 11:33:00;;;;;;;80.05;45.08;;;;;;;;;;5076408;28;20028;-73
2023/12/02 11:35:49;;;;;;;79.45;47.40;;;;;;;;;;5075572;28;20111;-72
2023/12/02 11:38:38;;;;;;;75.35;43.22;;;;;;;;;;5062647;28;20020;-71
2023/12/02 11:41:25;;;;;;;97.20;46.25;;;;;;;;;;5074123;28;20043;-71
2023/12/02 11:44:10;;;;;;;77.43;43.95;;;;;;;;;;5074674;28;20055;-72
2023/12/02 11:47:02;;;;;;;78.97;47.03;;;;;;;;;;5075344;28;20021;-71
2023/12/02 11:49:51;;;;;;;81.65;50.58;;;;;;;;;;5060425;28;20031;-71
2023/12/02 11:52:52;;;;;;;80.05;51.17;;;;;;;;;;5074197;28;20045;-71
2023/12/02 11:55:43;;;;;;;79.15;48.58;;;;;;;;;;5060295;28;20039;-70
2023/12/02 11:58:49;;;;;;;77.95;46.65;;;;;;;;;;5074479;28;20028;-70
2023/12/02 12:01:44;;;;;;;102.82;46.65;;;;;;;;;;5072708;28;20047;-73
2023/12/02 12:04:32;;;;;;;105.55;49.50;;;;;;;;;;5074203;28;20468;-71
2023/12/02 12:07:32;;;;;;;143.18;51.05;;;;;;;;;;5073762;28;20029;-71
2023/12/02 12:10:18;;;;;;;77.80;47.28;;;;;;;;;;5073999;28;20158;-72
2023/12/02 12:13:05;;;;;;;89.90;46.50;;;;;;;;;;5073730;28;20020;-71
2023/12/02 12:15:51;;;;;;;85.97;47.78;;;;;;;;;;5073568;28;20020;-73
2023/12/02 12:18:37;;;;;;;90.00;48.25;;;;;;;;;;5074630;28;20047;-72
2023/12/02 12:21:22;;;;;;;77.80;46.10;;;;;;;;;;5073092;28;20032;-72
2023/12/02 12:24:08;;;;;;;79.20;46.63;;;;;;;;;;5073261;28;20552;-72
2023/12/02 12:26:53;;;;;;;73.18;45.13;;;;;;;;;;5074871;28;20021;-72
2023/12/02 12:29:52;;;;;;;84.10;47.60;;;;;;;;;;5073757;28;20111;-71
2023/12/02 12:32:39;;;;;;;82.45;49.15;;;;;;;;;;5073874;28;20027;-72
2023/12/02 12:35:24;;;;;;;82.13;46.63;;;;;;;;;;5072902;28;20032;-72
2023/12/02 12:38:10;;;;;;;87.38;44.03;;;;;;;;;;5074835;28;20427;-72
2023/12/02 12:40:59;;;;;;;83.43;45.60;;;;;;;;;;5073872;28;20032;-72
2023/12/02 12:43:44;;;;;;;82.45;44.30;;;;;;;;;;5059302;28;20020;-72
2023/12/02 12:46:30;;;;;;;73.13;43.72;;;;;;;;;;5074129;28;20522;-72
2023/12/02 12:49:20;;;;;;;72.55;42.83;;;;;;;;;;5073542;28;20360;-72
2023/12/02 12:52:07;;;;;;;100.68;45.92;;;;;;;;;;5073031;28;20122;-71
2023/12/02 12:54:57;;;;;;;89.32;46.35;;;;;;;;;;5074950;28;20078;-73
2023/12/02 12:57:46;;;;;;;78.18;45.45;;;;;;;;;;5073944;28;20031;-72
2023/12/02 13:00:33;;;;;;;117.35;47.17;;;;;;;;;;5059867;28;20078;-73
2023/12/02 13:03:31;;;;;;;112.97;50.90;;;;;;;;;;5074632;28;20021;-73
2023/12/02 13:06:32;;;;;;;96.40;48.85;;;;;;;;;;5074480;28;20046;-73
2023/12/02 13:09:21;;;;;;;93.93;46.10;;;;;;;;;;5074604;28;20472;-74
2023/12/02 13:12:25;;;;;;;79.88;47.22;;;;;;;;;;5058990;28;20369;-73
2023/12/02 13:15:13;;;;;;;110.35;47.78;;;;;;;;;;5057717;28;20082;-73
2023/12/02 13:17:59;;;;;;;106.70;46.78;;;;;;;;;;5073398;28;20372;-73
2023/12/02 13:20:45;;;;;;;79.18;44.10;;;;;;;;;;5059789;28;20056;-74
2023/12/02 13:23:30;;;;;;;194.90;49.80;;;;;;;;;;5060022;28;20067;-72
2023/12/02 13:26:17;;;;;;;119.80;44.13;;;;;;;;;;5072665;28;20032;-74
2023/12/02 13:29:04;;;;;;;75.65;46.63;;;;;;;;;;5072863;28;20476;-73
2023/12/02 13:31:50;;;;;;;84.57;50.25;;;;;;;;;;5059490;28;20075;-73
2023/12/02 13:35:00;;;;;;;81.90;48.05;;;;;;;;;;5059912;28;20447;-73
2023/12/02 13:37:54;;;;;;;103.43;50.53;;;;;;;;;;5059093;28;20023;-73
2023/12/02 13:40:59;;;;;;;112.82;48.15;;;;;;;;;;5059773;28;20016;-74
2023/12/02 13:43:51;;;;;;;121.20;50.58;;;;;;;;;;5046478;28;20009;-74
2023/12/02 13:46:56;;;;;;;102.10;49.15;;;;;;;;;;5073098;28;20016;-74
2023/12/02 13:49:43;;;;;;;125.10;50.17;;;;;;;;;;5074906;28;20060;-70
2023/12/02 13:52:31;;;;;;;95.78;49.67;;;;;;;;;;5074505;28;20123;-73
2023/12/02 13:55:38;;;;;;;107.15;52.00;;;;;;;;;;5059429;28;20074;-73
2023/12/02 13:58:27;;;;;;;95.50;50.33;;;;;;;;;;5074264;28;20441;-72
2023/12/02 14:01:12;;;;;;;108.82;49.63;;;;;;;;;;5058315;28;20089;-71
2023/12/02 14:03:58;;;;;;;132.30;53.72;;;;;;;;;;5074393;28;20105;-73
2023/12/02 14:07:02;;;;;;;104.47;46.67;;;;;;;;;;5077779;28;20017;-71
2023/12/02 14:09:49;;;;;;;95.28;49.20;;;;;;;;;;5078586;28;20067;-73
2023/12/02 14:12:35;;;;;;;97.20;50.50;;;;;;;;;;5077766;28;20175;-72
2023/12/02 14:15:39;;;;;;;88.18;50.17;;;;;;;;;;5063211;28;20154;-73
2023/12/02 14:18:43;;;;;;;132.55;51.90;;;;;;;;;;5078836;28;20025;-76
2023/12/02 14:21:29;;;;;;;120.70;51.35;;;;;;;;;;5080415;28;20020;-72
2023/12/02 14:24:29;;;;;;;128.40;54.00;;;;;;;;;;5077494;28;20456;-73
2023/12/02 14:27:37;;;;;;;106.10;52.47;;;;;;;;;;5077411;28;20081;-72
2023/12/02 14:30:28;;;;;;;115.13;54.90;;;;;;;;;;5077157;28;20032;-74
2023/12/02 14:33:23;;;;;;;113.75;50.88;;;;;;;;;;5077415;28;20070;-78
2023/12/02 14:36:21;;;;;;;123.85;51.85;;;;;;;;;;5077617;28;20028;-72
2023/12/02 14:39:09;;;;;;;95.60;52.90;;;;;;;;;;5077199;28;20035;-73
2023/12/02 14:42:15;;;;;;;109.32;53.13;;;;;;;;;;5076944;28;20036;-73
2023/12/02 14:45:01;;;;;;;142.63;55.85;;;;;;;;;;5077713;28;20085;-72
2023/12/02 14:47:51;;;;;;;144.05;56.80;;;;;;;;;;5075587;28;20016;-72
2023/12/02 14:50:38;;;;;;;167.32;58.22;;;;;;;;;;5080238;28;20044;-73
2023/12/02 14:53:32;;;;;;;206.38;62.30;;;;;;;;;;5077149;28;20025;-74
2023/12/02 14:56:27;;;;;;;164.07;58.78;;;;;;;;;;5077158;28;20068;-72
2023/12/02 14:59:13;;;;;;;182.88;59.65;;;;;;;;;;5076076;28;20020;-73
2023/12/02 15:01:59;;;;;;;154.95;60.85;;;;;;;;;;5061706;28;20093;-72
2023/12/02 15:04:44;;;;;;;164.30;68.97;;;;;;;;;;5075728;28;20103;-73
2023/12/02 15:07:44;;;;;;;119.60;65.25;;;;;;;;;;5062697;28;20117;-71
2023/12/02 15:10:29;;;;;;;141.93;65.40;;;;;;;;;;5076716;28;20021;-74
2023/12/02 15:13:18;;;;;;;162.23;66.65;;;;;;;;;;5075059;28;20027;-71
2023/12/02 15:16:07;;;;;;;157.70;69.50;;;;;;;;;;5074474;28;20020;-73
2023/12/02 15:18:53;;;;;;;109.28;56.90;;;;;;;;;;5061410;28;20135;-74
2023/12/02 15:21:57;;;;;;;117.82;53.33;;;;;;;;;;5075515;28;20031;-73
2023/12/02 15:24:42;;;;;;;105.40;54.90;;;;;;;;;;5076335;28;20029;-74
2023/12/02 15:27:28;;;;;;;142.38;65.38;;;;;;;;;;5075687;28;20445;-73
2023/12/02 15:30:14;;;;;;;109.47;50.13;;;;;;;;;;5076798;28;20025;-73
2023/12/02 15:33:00;;;;;;;111.90;51.35;;;;;;;;;;5076101;28;20341;-73
2023/12/02 15:35:46;;;;;;;93.15;44.45;;;;;;;;;;5075870;28;20103;-75
2023/12/02 15:38:31;;;;;;;95.13;41.60;;;;;;;;;;5062242;28;20025;-73
2023/12/02 15:41:18;;;;;;;111.90;48.03;;;;;;;;;;5073696;28;20031;-72
2023/12/02 15:44:03;;;;;;;72.45;37.70;;;;;;;;;;5075537;28;20448;-72
2023/12/02 15:46:49;;;;;;;100.05;52.28;;;;;;;;;;5074150;28;20032;-73
2023/12/02 15:49:34;;;;;;;88.72;50.42;;;;;;;;;;5073763;28;20471;-73
2023/12/02 15:52:20;;;;;;;100.97;51.67;;;;;;;;;;5093508;28;20044;-74
2023/12/02 15:55:06;;;;;;;59.40;33.13;;;;;;;;;;5094455;28;20046;-74
2023/12/02 15:57:51;;;;;;;63.70;33.95;;;;;;;;;;5081134;28;20410;-74
2023/12/02 16:00:37;;;;;;;88.60;39.80;;;;;;;;;;5081869;28;20459;-72
2023/12/02 16:03:23;;;;;;;52.60;28.77;;;;;;;;;;5093449;28;20364;-75
2023/12/02 16:06:09;;;;;;;58.28;32.67;;;;;;;;;;5094485;28;20039;-75
2023/12/02 16:08:55;;;;;;;66.20;36.08;;;;;;;;;;5094754;28;20031;-74
2023/12/02 16:11:40;;;;;;;59.70;31.98;;;;;;;;;;5092913;28;20047;-72
2023/12/02 16:14:26;;;;;;;66.70;35.05;;;;;;;;;;5094664;28;20035;-75